Station History


Daily Summary for February 20, 2012 Units:  English    Metric   Both
« Previous Day
Next Day »
Daily Weekly Monthly Yearly Custom
  High: Low: Average:
Temperature: 65.2 °F 36.8 °F 48.2 °F
Dew Point: 40.5 °F 34.5 °F 37.8 °F
Humidity: 93% 34% 71%
Wind Speed: 4.6mph 0.0mph 2mph
Wind Gust: 4.6mph - -
Wind- - WSW
Pressure: 30.18 in 30.08 in -
Precipitation: 0.00 in    
Historical Graphs
 
 
Tabular Data for February 20, 2012
Time Temperature Dew Point Pressure Wind Wind Speed Wind Gust Humidity Rainfall Rate (Hourly)
00:04 40.5 °F 36.6 °F 30.11 in Calm     86% 0.00 in
00:09 40.5 °F 37.2 °F 30.11 in Calm     88% 0.00 in
00:14 40.6 °F 37.0 °F 30.11 in Calm     87% 0.00 in
00:19 40.5 °F 36.6 °F 30.11 in Calm     86% 0.00 in
00:24 40.3 °F 36.7 °F 30.11 in Calm     87% 0.00 in
00:29 40.0 °F 36.4 °F 30.11 in Calm     87% 0.00 in
00:34 39.9 °F 36.6 °F 30.11 in Calm     88% 0.00 in
00:39 39.6 °F 36.0 °F 30.11 in Calm     87% 0.00 in
00:44 39.2 °F 35.9 °F 30.12 in Calm     88% 0.00 in
00:49 39.0 °F 36.0 °F 30.12 in Calm     89% 0.00 in
00:54 38.8 °F 35.8 °F 30.12 in Calm     89% 0.00 in
00:59 38.6 °F 35.6 °F 30.12 in Calm     89% 0.00 in
01:04 38.4 °F 35.4 °F 30.12 in Calm     89% 0.00 in
01:09 38.3 °F 35.6 °F 30.13 in Calm     90% 0.00 in
01:14 38.6 °F 35.9 °F 30.12 in Calm     90% 0.00 in
01:19 38.9 °F 36.2 °F 30.12 in NE 1.1 mph   90% 0.00 in
01:24 39.1 °F 36.1 °F 30.13 in Calm     89% 0.00 in
01:29 39.0 °F 36.3 °F 30.13 in Calm     90% 0.00 in
01:34 38.9 °F 36.2 °F 30.13 in Calm     90% 0.00 in
01:39 39.0 °F 36.3 °F 30.13 in Calm     90% 0.00 in
01:44 38.8 °F 36.1 °F 30.13 in Calm     90% 0.00 in
01:49 38.6 °F 35.6 °F 30.12 in Calm     89% 0.00 in
01:54 38.3 °F 35.6 °F 30.11 in Calm     90% 0.00 in
01:59 38.3 °F 35.6 °F 30.10 in Calm     90% 0.00 in
02:04 38.1 °F 35.4 °F 30.10 in Calm     90% 0.00 in
02:09 38.3 °F 36.2 °F 30.11 in Calm     92% 0.00 in
02:14 38.3 °F 35.9 °F 30.11 in Calm     91% 0.00 in
02:19 38.2 °F 35.8 °F 30.11 in Calm     91% 0.00 in
02:24 37.9 °F 35.2 °F 30.10 in Calm     90% 0.00 in
02:29 37.8 °F 35.7 °F 30.09 in Calm     92% 0.00 in
02:34 37.9 °F 35.8 °F 30.09 in Calm     92% 0.00 in
02:39 38.0 °F 35.9 °F 30.09 in Calm     92% 0.00 in
02:44 38.0 °F 35.9 °F 30.09 in Calm     92% 0.00 in
02:49 37.9 °F 35.8 °F 30.09 in Calm     92% 0.00 in
02:54 38.2 °F 36.1 °F 30.08 in Calm     92% 0.00 in
02:59 38.2 °F 36.1 °F 30.09 in Calm     92% 0.00 in
03:04 38.1 °F 36.0 °F 30.09 in Calm     92% 0.00 in
03:09 38.3 °F 35.9 °F 30.09 in Calm     91% 0.00 in
03:14 38.2 °F 35.8 °F 30.10 in Calm     91% 0.00 in
03:19 38.2 °F 35.8 °F 30.10 in Calm     91% 0.00 in
03:24 38.1 °F 35.7 °F 30.10 in Calm     91% 0.00 in
03:29 38.2 °F 35.8 °F 30.10 in Calm     91% 0.00 in
03:34 38.1 °F 35.7 °F 30.09 in Calm     91% 0.00 in
03:39 37.8 °F 35.1 °F 30.10 in Calm     90% 0.00 in
03:44 37.5 °F 34.8 °F 30.10 in Calm     90% 0.00 in
03:49 37.2 °F 34.5 °F 30.10 in Calm     90% 0.00 in
03:54 37.0 °F 34.6 °F 30.11 in Calm     91% 0.00 in
03:59 36.9 °F 34.5 °F 30.10 in Calm     91% 0.00 in
04:04 36.8 °F 34.7 °F 30.11 in Calm     92% 0.00 in
04:09 36.9 °F 34.8 °F 30.11 in Calm     92% 0.00 in
04:14 36.9 °F 34.8 °F 30.11 in Calm     92% 0.00 in
04:19 37.0 °F 34.9 °F 30.11 in Calm     92% 0.00 in
04:24 37.3 °F 35.5 °F 30.11 in Calm     93% 0.00 in
04:29 37.5 °F 35.4 °F 30.11 in Calm     92% 0.00 in
04:34 37.5 °F 35.4 °F 30.11 in Calm     92% 0.00 in
04:39 37.6 °F 35.5 °F 30.11 in Calm     92% 0.00 in
04:44 37.6 °F 35.5 °F 30.11 in Calm     92% 0.00 in
04:49 37.7 °F 35.6 °F 30.11 in Calm     92% 0.00 in
04:54 37.7 °F 35.6 °F 30.11 in Calm     92% 0.00 in
04:59 37.8 °F 35.7 °F 30.11 in Calm     92% 0.00 in
05:04 38.1 °F 36.3 °F 30.11 in Calm     93% 0.00 in
05:09 38.3 °F 36.2 °F 30.11 in Calm     92% 0.00 in
05:14 38.6 °F 36.5 °F 30.12 in Calm     92% 0.00 in
05:19 38.7 °F 36.6 °F 30.12 in Calm     92% 0.00 in
05:24 38.8 °F 36.4 °F 30.12 in Calm     91% 0.00 in
05:29 38.8 °F 36.4 °F 30.12 in Calm     91% 0.00 in
05:34 38.8 °F 36.4 °F 30.12 in Calm     91% 0.00 in
05:39 38.8 °F 36.4 °F 30.12 in Calm     91% 0.00 in
05:44 38.9 °F 36.5 °F 30.11 in Calm     91% 0.00 in
05:49 39.1 °F 37.0 °F 30.11 in Calm     92% 0.00 in
05:54 39.2 °F 36.8 °F 30.11 in Calm     91% 0.00 in
05:59 39.2 °F 36.8 °F 30.11 in Calm     91% 0.00 in
06:04 39.2 °F 36.8 °F 30.11 in Calm     91% 0.00 in
06:09 39.2 °F 36.8 °F 30.11 in Calm     91% 0.00 in
06:14 39.2 °F 36.8 °F 30.10 in Calm     91% 0.00 in
06:19 39.2 °F 36.8 °F 30.10 in Calm     91% 0.00 in
06:24 39.3 °F 37.2 °F 30.10 in Calm     92% 0.00 in
06:29 39.3 °F 37.2 °F 30.10 in Calm     92% 0.00 in
06:34 39.3 °F 36.9 °F 30.10 in Calm     91% 0.00 in
06:39 39.3 °F 36.9 °F 30.11 in Calm     91% 0.00 in
06:44 39.2 °F 36.8 °F 30.11 in Calm     91% 0.00 in
06:49 39.0 °F 36.6 °F 30.11 in Calm     91% 0.00 in
06:54 38.8 °F 36.4 °F 30.11 in Calm     91% 0.00 in
06:59 38.7 °F 36.3 °F 30.11 in Calm     91% 0.00 in
07:04 38.9 °F 36.8 °F 30.11 in Calm     92% 0.00 in
07:09 39.5 °F 37.6 °F 30.11 in Calm     93% 0.00 in
07:14 39.6 °F 37.5 °F 30.11 in Calm     92% 0.00 in
07:19 39.7 °F 37.6 °F 30.11 in Calm     92% 0.00 in
07:24 39.9 °F 37.8 °F 30.12 in Calm     92% 0.00 in
07:29 40.1 °F 38.0 °F 30.12 in Calm     92% 0.00 in
07:34 40.6 °F 38.5 °F 30.13 in Calm     92% 0.00 in
07:39 40.8 °F 38.4 °F 30.14 in Calm     91% 0.00 in
07:44 41.1 °F 38.7 °F 30.14 in Calm     91% 0.00 in
07:49 41.4 °F 39.0 °F 30.14 in Calm     91% 0.00 in
07:54 41.6 °F 38.9 °F 30.14 in Calm     90% 0.00 in
07:59 41.9 °F 39.5 °F 30.13 in Calm     91% 0.00 in
08:05 42.4 °F 39.7 °F 30.14 in Calm     90% 0.00 in
08:10 42.8 °F 39.8 °F 30.14 in Calm     89% 0.00 in
08:15 43.3 °F 40.0 °F 30.14 in Calm     88% 0.00 in
08:20 43.8 °F 40.2 °F 30.14 in Calm     87% 0.00 in
08:25 44.2 °F 40.0 °F 30.14 in Calm     85% 0.00 in
08:30 44.6 °F 39.8 °F 30.14 in Calm     83% 0.00 in
08:35 44.9 °F 39.1 °F 30.13 in Calm     80% 0.00 in
08:40 45.1 °F 38.3 °F 30.13 in Calm     77% 0.00 in
08:41 45.2 °F 38.4 °F 30.13 in Calm     77% 0.00 in
08:46 45.5 °F 38.0 °F 30.13 in Calm     75% 0.00 in
08:51 46.2 °F 38.0 °F 30.14 in SW 1.1 mph   73% 0.00 in
08:56 47.1 °F 37.8 °F 30.14 in SW 2.3 mph 2.3 mph 70% 0.00 in
09:01 47.8 °F 37.7 °F 30.14 in WSW 1.1 mph 1.1 mph 68% 0.00 in
09:06 48.2 °F 37.0 °F 30.14 in Calm     65% 0.00 in
09:11 48.5 °F 36.9 °F 30.14 in WSW 1.1 mph 1.1 mph 64% 0.00 in
09:16 48.9 °F 37.3 °F 30.15 in SW 1.1 mph   64% 0.00 in
09:21 49.6 °F 36.3 °F 30.15 in WSW 2.3 mph 2.3 mph 60% 0.00 in
09:26 50.2 °F 36.0 °F 30.15 in SW 2.3 mph 2.3 mph 58% 0.00 in
09:31 50.7 °F 36.5 °F 30.16 in SW 1.1 mph 1.1 mph 58% 0.00 in
09:36 51.0 °F 38.4 °F 30.15 in Calm     62% 0.00 in
09:41 51.1 °F 37.7 °F 30.15 in West 1.1 mph 1.1 mph 60% 0.00 in
09:46 51.1 °F 37.7 °F 30.16 in Calm     60% 0.00 in
09:51 50.9 °F 37.1 °F 30.16 in WSW 1.1 mph 1.1 mph 59% 0.00 in
09:56 50.8 °F 36.5 °F 30.16 in West 1.1 mph   58% 0.00 in
10:01 50.8 °F 37.0 °F 30.17 in West 2.3 mph 2.3 mph 59% 0.00 in
10:06 51.0 °F 38.4 °F 30.17 in WNW 1.1 mph 1.1 mph 62% 0.00 in
10:11 51.3 °F 37.9 °F 30.17 in NW 3.5 mph 3.5 mph 60% 0.00 in
10:16 51.3 °F 37.9 °F 30.17 in North 2.3 mph 2.3 mph 60% 0.00 in
10:21 51.6 °F 36.4 °F 30.17 in Calm     56% 0.00 in
10:26 52.0 °F 37.7 °F 30.17 in North 1.1 mph 1.1 mph 58% 0.00 in
10:31 52.5 °F 37.2 °F 30.17 in WNW 1.1 mph 1.1 mph 56% 0.00 in
10:36 52.8 °F 36.6 °F 30.17 in NNW 1.1 mph 1.1 mph 54% 0.00 in
10:41 53.0 °F 36.8 °F 30.16 in Calm     54% 0.00 in
10:46 53.4 °F 37.6 °F 30.17 in North 1.0 mph 1.0 mph 55% 0.00 in
10:51 53.9 °F 37.6 °F 30.16 in NNW 1.1 mph 1.1 mph 54% 0.00 in
10:56 54.6 °F 37.8 °F 30.16 in NW 2.3 mph 2.3 mph 53% 0.00 in
11:01 55.0 °F 37.7 °F 30.16 in WNW 1.1 mph 1.1 mph 52% 0.00 in
11:06 55.6 °F 37.2 °F 30.16 in NNE 2.3 mph 2.3 mph 50% 0.00 in
11:11 55.7 °F 37.3 °F 30.16 in WNW 2.3 mph 2.3 mph 50% 0.00 in
11:16 56.1 °F 37.2 °F 30.16 in NNW 3.5 mph 3.5 mph 49% 0.00 in
11:21 56.3 °F 37.4 °F 30.16 in West 1.1 mph 1.1 mph 49% 0.00 in
11:26 56.9 °F 37.4 °F 30.16 in NNE 2.3 mph 2.3 mph 48% 0.00 in
11:31 57.2 °F 38.2 °F 30.15 in NE 1.1 mph 1.1 mph 49% 0.00 in
11:36 57.4 °F 37.3 °F 30.15 in NW 3.5 mph 3.5 mph 47% 0.00 in
11:41 57.4 °F 36.8 °F 30.15 in NE 1.1 mph 1.1 mph 46% 0.00 in
11:46 57.7 °F 37.0 °F 30.15 in NE 2.3 mph 2.3 mph 46% 0.00 in
11:51 57.5 °F 38.5 °F 30.15 in NE 1.1 mph 1.1 mph 49% 0.00 in
11:56 58.0 °F 37.9 °F 30.15 in NW 2.3 mph   47% 0.00 in
12:01 58.6 °F 40.0 °F 30.15 in NNW 1.0 mph 1.0 mph 50% 0.00 in
12:06 59.0 °F 39.9 °F 30.15 in WNW 2.0 mph 2.0 mph 49% 0.00 in
12:11 59.3 °F 39.6 °F 30.14 in WNW 2.3 mph 2.3 mph 48% 0.00 in
12:16 60.1 °F 39.8 °F 30.14 in WNW 1.1 mph 1.1 mph 47% 0.00 in
12:21 60.7 °F 39.2 °F 30.14 in North 1.1 mph 1.1 mph 45% 0.00 in
12:26 61.3 °F 40.3 °F 30.13 in NW 2.0 mph 2.0 mph 46% 0.00 in
12:31 60.9 °F 39.4 °F 30.13 in North 2.3 mph 2.3 mph 45% 0.00 in
12:36 60.5 °F 36.7 °F 30.13 in West 1.1 mph 1.1 mph 41% 0.00 in
12:41 61.0 °F 35.2 °F 30.13 in NW 2.3 mph 2.3 mph 38% 0.00 in
12:46 61.1 °F 35.3 °F 30.12 in ENE 2.3 mph 2.3 mph 38% 0.00 in
12:51 61.3 °F 37.4 °F 30.12 in South 2.3 mph 2.3 mph 41% 0.00 in
12:56 61.8 °F 38.4 °F 30.12 in South 2.0 mph 2.0 mph 42% 0.00 in
13:01 62.5 °F 40.3 °F 30.12 in NNW 4.0 mph 4.0 mph 44% 0.00 in
13:06 62.5 °F 40.3 °F 30.12 in West 1.1 mph 1.1 mph 44% 0.00 in
13:11 62.9 °F 40.0 °F 30.12 in West 3.5 mph 3.5 mph 43% 0.00 in
13:27 63.1 °F 39.6 °F 30.12 in NW 1.1 mph 1.1 mph 42% 0.00 in
14:02 63.5 °F 39.4 °F 30.11 in NNE 3.5 mph   41% 0.00 in
14:07 64.0 °F 39.2 °F 30.10 in SW 2.3 mph 2.3 mph 40% 0.00 in
14:12 63.7 °F 38.3 °F 30.10 in NW 3.5 mph 3.5 mph 39% 0.00 in
14:17 63.7 °F 39.5 °F 30.10 in NNW 1.1 mph 1.1 mph 41% 0.00 in
14:22 64.0 °F 37.9 °F 30.10 in NNE 1.1 mph   38% 0.00 in
14:27 64.6 °F 38.4 °F 30.10 in West 1.1 mph 1.1 mph 38% 0.00 in
14:32 64.9 °F 38.7 °F 30.10 in NNE 1.1 mph   38% 0.00 in
14:37 64.9 °F 38.0 °F 30.10 in NNW 3.5 mph 3.5 mph 37% 0.00 in
14:42 64.7 °F 37.8 °F 30.09 in WSW 3.5 mph 3.5 mph 37% 0.00 in
14:47 64.5 °F 37.6 °F 30.09 in WSW 1.1 mph 1.1 mph 37% 0.00 in
14:52 64.9 °F 38.0 °F 30.10 in WNW 3.5 mph 3.5 mph 37% 0.00 in
14:57 64.4 °F 37.5 °F 30.09 in Calm   0.2 mph 37% 0.00 in
15:02 64.5 °F 36.9 °F 30.09 in West 2.3 mph 2.3 mph 36% 0.00 in
15:07 64.5 °F 36.9 °F 30.10 in NW 3.5 mph 3.5 mph 36% 0.00 in
15:12 64.4 °F 37.5 °F 30.10 in West 3.5 mph 3.5 mph 37% 0.00 in
15:17 64.1 °F 36.6 °F 30.09 in WSW 3.5 mph 3.5 mph 36% 0.00 in
15:22 64.0 °F 37.2 °F 30.09 in NNW 1.1 mph 1.1 mph 37% 0.00 in
15:28 64.7 °F 35.7 °F 30.09 in NW 2.3 mph 2.3 mph 34% 0.00 in
15:33 64.7 °F 37.1 °F 30.09 in NW 2.3 mph 2.3 mph 36% 0.00 in
15:38 64.9 °F 35.8 °F 30.09 in SW 1.1 mph 1.1 mph 34% 0.00 in
15:43 65.1 °F 36.8 °F 30.09 in West 2.3 mph 2.3 mph 35% 0.00 in
15:48 65.2 °F 36.8 °F 30.09 in North 3.5 mph 3.5 mph 35% 0.00 in
15:53 65.2 °F 37.6 °F 30.09 in NE 2.3 mph 2.3 mph 36% 0.00 in
15:58 65.0 °F 38.1 °F 30.09 in West 2.3 mph 2.3 mph 37% 0.00 in
16:03 64.5 °F 38.3 °F 30.09 in West 1.1 mph 1.1 mph 38% 0.00 in
16:08 64.2 °F 38.0 °F 30.09 in South 2.3 mph 2.3 mph 38% 0.00 in
16:13 64.2 °F 38.0 °F 30.09 in West 3.5 mph 3.5 mph 38% 0.00 in
16:15 64.0 °F 37.9 °F 30.09 in NW 3.5 mph 3.5 mph 38% 0.00 in
16:20 63.8 °F 38.4 °F 30.09 in West 1.1 mph 1.1 mph 39% 0.00 in
16:25 63.6 °F 38.2 °F 30.09 in SSW 1.1 mph 1.1 mph 39% 0.00 in
16:30 63.5 °F 38.7 °F 30.09 in SE 2.3 mph 2.3 mph 40% 0.00 in
16:35 63.2 °F 39.1 °F 30.09 in NNW 4.6 mph 4.6 mph 41% 0.00 in
16:40 62.7 °F 39.9 °F 30.09 in NNW 1.1 mph 1.1 mph 43% 0.00 in
16:45 62.0 °F 39.8 °F 30.09 in SW 3.5 mph 3.5 mph 44% 0.00 in
16:50 61.4 °F 39.3 °F 30.09 in ESE 1.1 mph   44% 0.00 in
16:55 61.0 °F 39.5 °F 30.09 in WNW 1.1 mph 1.1 mph 45% 0.00 in
17:00 60.7 °F 40.3 °F 30.09 in North 2.3 mph 2.3 mph 47% 0.00 in
17:05 60.3 °F 40.5 °F 30.09 in NNW 1.1 mph 1.1 mph 48% 0.00 in
17:10 60.1 °F 40.3 °F 30.09 in West 2.3 mph 2.3 mph 48% 0.00 in
17:15 59.7 °F 40.5 °F 30.09 in West 1.1 mph 1.1 mph 49% 0.00 in
17:20 59.4 °F 40.2 °F 30.10 in NW 1.1 mph 1.1 mph 49% 0.00 in
17:25 59.1 °F 40.5 °F 30.10 in Calm     50% 0.00 in
17:30 58.8 °F 40.2 °F 30.10 in WNW 1.1 mph 1.1 mph 50% 0.00 in
17:35 58.5 °F 40.4 °F 30.10 in Calm     51% 0.00 in
17:40 58.1 °F 40.1 °F 30.10 in West 1.1 mph   51% 0.00 in
17:45 57.7 °F 40.2 °F 30.10 in Calm     52% 0.00 in
17:50 57.3 °F 40.3 °F 30.11 in West 1.1 mph   53% 0.00 in
17:55 56.8 °F 39.8 °F 30.11 in Calm     53% 0.00 in
18:00 56.3 °F 39.9 °F 30.11 in Calm     54% 0.00 in
18:05 55.8 °F 39.9 °F 30.11 in Calm     55% 0.00 in
18:10 55.4 °F 39.5 °F 30.11 in Calm     55% 0.00 in
18:15 54.9 °F 39.5 °F 30.11 in Calm     56% 0.00 in
18:20 54.5 °F 39.6 °F 30.11 in Calm     57% 0.00 in
18:25 54.0 °F 40.0 °F 30.11 in Calm     59% 0.00 in
18:30 53.4 °F 39.4 °F 30.11 in Calm     59% 0.00 in
18:35 52.9 °F 39.4 °F 30.12 in Calm     60% 0.00 in
18:36 52.9 °F 39.4 °F 30.12 in Calm     60% 0.00 in
18:41 52.4 °F 39.3 °F 30.12 in Calm     61% 0.00 in
18:46 51.8 °F 39.6 °F 30.12 in Calm     63% 0.00 in
18:51 51.4 °F 39.6 °F 30.12 in Calm     64% 0.00 in
18:56 51.1 °F 39.7 °F 30.12 in Calm     65% 0.00 in
19:01 50.8 °F 39.8 °F 30.12 in Calm     66% 0.00 in
19:06 50.4 °F 39.9 °F 30.12 in Calm     67% 0.00 in
19:11 50.1 °F 39.9 °F 30.12 in Calm     68% 0.00 in
19:16 49.6 °F 40.2 °F 30.12 in Calm     70% 0.00 in
19:21 49.3 °F 39.9 °F 30.12 in Calm     70% 0.00 in
19:26 48.9 °F 39.9 °F 30.13 in Calm     71% 0.00 in
19:31 48.6 °F 40.0 °F 30.13 in Calm     72% 0.00 in
19:36 48.4 °F 40.5 °F 30.12 in Calm     74% 0.00 in
19:38 48.4 °F 40.1 °F 30.13 in Calm     73% 0.00 in
19:43 48.1 °F 39.9 °F 30.13 in Calm     73% 0.00 in
19:48 47.8 °F 39.6 °F 30.13 in Calm     73% 0.00 in
19:53 47.5 °F 40.0 °F 30.13 in Calm     75% 0.00 in
19:58 47.2 °F 40.0 °F 30.13 in Calm     76% 0.00 in
20:03 46.9 °F 39.7 °F 30.14 in Calm     76% 0.00 in
20:08 46.8 °F 40.0 °F 30.14 in Calm     77% 0.00 in
20:13 46.5 °F 39.7 °F 30.14 in Calm     77% 0.00 in
20:18 46.3 °F 39.8 °F 30.14 in Calm     78% 0.00 in
20:23 46.1 °F 40.3 °F 30.14 in Calm     80% 0.00 in
20:28 45.9 °F 39.8 °F 30.14 in Calm     79% 0.00 in
20:33 45.7 °F 39.9 °F 30.15 in Calm     80% 0.00 in
20:38 45.7 °F 40.2 °F 30.15 in Calm     81% 0.00 in
20:43 45.9 °F 40.1 °F 30.15 in Calm     80% 0.00 in
20:48 45.9 °F 39.8 °F 30.16 in Calm     79% 0.00 in
20:53 45.8 °F 40.0 °F 30.16 in Calm     80% 0.00 in
20:58 45.6 °F 39.8 °F 30.16 in Calm     80% 0.00 in
21:00 45.5 °F 39.7 °F 30.16 in Calm     80% 0.00 in
21:01 45.5 °F 39.7 °F 30.16 in Calm     80% 0.00 in
21:06 45.3 °F 39.5 °F 30.16 in Calm     80% 0.00 in
21:11 45.2 °F 39.7 °F 30.16 in Calm     81% 0.00 in
21:16 44.9 °F 39.1 °F 30.16 in Calm     80% 0.00 in
21:21 44.6 °F 39.1 °F 30.17 in Calm     81% 0.00 in
21:26 44.3 °F 38.8 °F 30.17 in Calm     81% 0.00 in
21:31 44.0 °F 38.9 °F 30.17 in Calm     82% 0.00 in
21:36 43.8 °F 39.0 °F 30.17 in Calm     83% 0.00 in
21:41 43.7 °F 39.2 °F 30.17 in Calm     84% 0.00 in
21:46 43.9 °F 39.4 °F 30.17 in Calm     84% 0.00 in
21:51 43.9 °F 39.1 °F 30.17 in Calm     83% 0.00 in
21:56 43.7 °F 38.9 °F 30.17 in Calm     83% 0.00 in
22:01 43.6 °F 38.8 °F 30.17 in Calm     83% 0.00 in
22:06 43.3 °F 38.5 °F 30.17 in Calm     83% 0.00 in
22:11 43.1 °F 38.6 °F 30.17 in Calm     84% 0.00 in
22:16 42.8 °F 38.3 °F 30.17 in Calm     84% 0.00 in
22:21 42.7 °F 38.5 °F 30.17 in Calm     85% 0.00 in
22:26 42.5 °F 38.0 °F 30.17 in Calm     84% 0.00 in
22:31 42.2 °F 38.0 °F 30.17 in Calm     85% 0.00 in
22:36 42.0 °F 37.8 °F 30.17 in Calm     85% 0.00 in
22:41 41.8 °F 37.6 °F 30.16 in Calm     85% 0.00 in
22:46 41.5 °F 37.3 °F 30.16 in Calm     85% 0.00 in
22:51 41.3 °F 37.4 °F 30.16 in Calm     86% 0.00 in
22:56 41.3 °F 37.7 °F 30.16 in Calm     87% 0.00 in
23:01 41.4 °F 38.1 °F 30.16 in Calm     88% 0.00 in
23:06 41.4 °F 38.1 °F 30.17 in Calm     88% 0.00 in
23:11 41.5 °F 38.2 °F 30.17 in Calm     88% 0.00 in
23:16 41.5 °F 38.2 °F 30.17 in Calm     88% 0.00 in
23:21 42.4 °F 38.8 °F 30.18 in Calm     87% 0.00 in
23:26 42.9 °F 38.4 °F 30.18 in Calm     84% 0.00 in
23:31 43.0 °F 38.5 °F 30.18 in Calm     84% 0.00 in
23:36 43.0 °F 38.5 °F 30.18 in Calm     84% 0.00 in
23:41 42.7 °F 38.2 °F 30.18 in Calm     84% 0.00 in
23:46 42.4 °F 37.9 °F 30.18 in Calm     84% 0.00 in
23:51 42.2 °F 37.7 °F 30.18 in Calm     84% 0.00 in
23:56 41.9 °F 37.4 °F 30.18 in Calm     84% 0.00 in
Compliments of Weather Underground